AirNav   Bose ProFlight Series 2 Headset
 
 917 users online  

4PA4 UPMC Susquehanna Lock Haven Heliport
Lock Haven, Pennsylvania, USA

GOING TO LOCK HAVEN?


FAA INFORMATION EFFECTIVE 02 JANUARY 2020

Location

FAA Identifier: 4PA4
Lat/Long: 41-07-55.0000N 077-28-15.0000W
41-07.916667N 077-28.250000W
41.1319444,-77.4708333
(estimated)
Elevation: 720 ft. / 219 m (estimated)
Variation: 11W (2000)
Time zone: UTC -5 (UTC -4 during Daylight Saving Time)
Zip code: 17745

Heliport Operations

Heliport use: Private use. Permission required prior to landing
Activation date: 04/1973
Control tower: no
ARTCC: NEW YORK CENTER
FSS: WILLIAMSPORT FLIGHT SERVICE STATION
NOTAMs facility: FDC (NOTAM-D service not available)
Attendance: CONTINUOUS
Wind indicator: yes
Segmented circle: no

Heliport Communications

  • APCH/DEP SVC PRVDD BY NEW YORK ARTCC (ZNY) ON 134.8/338.3 (PHILLIPSBURG RCAG).

Nearby radio navigation aids

VOR radial/distance  VOR name  Freq  Var
PSBr071/26.9PHILIPSBURG VORTAC115.5010W
ETGr109/30.8KEATING VORTAC116.0010W
SLTr143/32.1SLATE RUN VORTAC113.9008W
SEGr316/33.6SELINSGROVE VOR/DME110.4008W
FQMr257/33.8WILLIAMSPORT VOR/DME114.4009W
SFKr192/33.9STONYFORK VOR/DME108.6008W
MIPr289/37.0MILTON VORTAC109.2009W

Heliport Services

Airframe service: NONE
Powerplant service: NONE

Runway Information

Helipad H1

Dimensions: 70 x 70 ft. / 21 x 21 m
Surface: asphalt, in fair condition
Operational restrictions: INGRESS/EGRESS 110/280, 270/090.
Latitude: 41-07.916667N
Longitude: 077-28.250000W
Elevation: 720.0 ft.
Traffic pattern: leftleft
Markings: basic, in fair condition
Obstructions: tower, marked and lighted
BLDG AND RADIO TWR.

Heliport Ownership and Management from official FAA records

Ownership: Privately-owned
Owner: UPMC SUSQUEHANNA LOCK HAVEN
24 CREE DRIVE
LOCK HAVEN, PA 17745
Phone (570) 321-1000
Manager: STEVE MAHONSKI
24 CREE DRIVE
LOCK HAVEN, PA 17745
Phone (570) 893-5131

Additional Remarks

FOR CD CTC NEW YORK ARTCC AT 631-468-1425.

Instrument Procedures

There are no published instrument procedures at 4PA4.

Some nearby airports with instrument procedures:

KLHV - William T Piper Memorial Airport (2 nm E)
N96 - Bellefonte Airport (22 nm SW)
KUNV - University Park Airport (24 nm SW)
KIPT - Williamsport Regional Airport (26 nm E)
KRVL - Mifflin County Airport (28 nm S)
 
Loc | Ops | Rwys | IFR | FBO | Links
Com | Nav | Svcs | Stats | Notes
Area around 4PA4 (UPMC Susquehanna Lock Haven Heliport)
 
Road maps at: MapQuest Bing Google
 
Aerial photo
No photo
 
Sectional chart

 
Airport distance calculator
Flying to UPMC Susquehanna Lock Haven Heliport? Find the distance to fly.

From to 4PA4

Sunrise and sunset
Times for 21-Jan-2020
 Local
(UTC-5)
 Zulu
(UTC)
Morning civil twilight07:0112:01
Sunrise07:3112:31
Sunset17:1222:12
Evening civil twilight17:4222:42

Current date and time
Zulu (UTC)  22-Jan-2020 03:19:09
Local (UTC-5)  21-Jan-2020 22:19:09
 
METAR
KUNV 
24nm SW 
220253Z 31005KT 10SM SKC M06/M11 A3044
KIPT 
26nm E 
220254Z 29004KT 10SM CLR M04/M09 A3046 RMK AO2 SLP324 T10441094 50006
KRVL 
28nm S 
220255Z AUTO 00000KT 10SM CLR M05/M10 A3047 RMK AO2
KSEG 
33nm SE 
220253Z AUTO 00000KT 10SM CLR M04/M10 A3048 RMK AO2 SLP328 T10391100 50004
KN38 
36nm N 
220255Z AUTO 26008G14KT 10SM CLR M08/M11 A3037 RMK AO2
KFIG 
43nm W 
220254Z AUTO 26004KT 10SM CLR M08/M13 A3043 RMK AO2 SLP332 T10781128 58001
TAF
KUNV 
24nm SW 
212151Z 2122/2218 29008KT P6SM BKN035 FM220000 24003KT P6SM BKN250
KIPT 
26nm E 
212151Z 2122/2218 26008KT P6SM BKN045 FM212300 00000KT P6SM BKN250
NOTAMs
Click for the latest NOTAMs
NOTAMs are issued by the DoD/FAA and will open in a separate window not controlled by AirNav.

 

 
 

Would you like to see your business listed on this page?

 If your business provides an interesting product or service to pilots, flight crews, aircraft, or users of the UPMC Susquehanna Lock Haven Heliport, you should consider listing it here.  To start the listing process, click on the button below
 
Add a business
 

Other Pages about UPMC Susquehanna Lock Haven Heliport

Update a link
 
Copyright © AirNav, LLC. All rights reserved. Privacy Policy  Contact